createdAt,value
2023-08-09T00:00:02.792Z,14.62
2023-08-09T00:05:02.336Z,14.66
2023-08-09T00:10:02.868Z,14.65
2023-08-09T00:15:01.686Z,14.65
2023-08-09T00:20:01.977Z,14.64
2023-08-09T00:25:03.267Z,14.64
2023-08-09T00:30:02.113Z,14.66
2023-08-09T00:35:01.332Z,14.69
2023-08-09T00:40:02.115Z,14.69
2023-08-09T00:45:01.804Z,14.71
2023-08-09T00:50:02.122Z,14.72
2023-08-09T00:55:02.000Z,14.71
2023-08-09T01:00:01.470Z,14.7
2023-08-09T01:05:02.201Z,14.7
2023-08-09T01:10:01.432Z,14.75
2023-08-09T01:15:02.181Z,14.74
2023-08-09T01:20:01.535Z,14.77
2023-08-09T01:25:01.863Z,14.75
2023-08-09T01:30:01.449Z,14.77
2023-08-09T01:35:01.912Z,14.79
2023-08-09T01:40:02.223Z,14.79
2023-08-09T01:45:02.239Z,14.81
2023-08-09T01:50:01.591Z,14.79
2023-08-09T01:55:02.007Z,14.81
2023-08-09T02:00:02.239Z,14.81
2023-08-09T02:05:01.612Z,14.84
2023-08-09T02:10:01.282Z,14.84
2023-08-09T02:15:01.777Z,14.84
2023-08-09T02:20:01.391Z,14.85
2023-08-09T02:25:02.105Z,14.92
2023-08-09T02:30:02.284Z,14.91
2023-08-09T02:35:01.555Z,14.89
2023-08-09T02:40:02.098Z,14.92
2023-08-09T02:45:02.118Z,14.92
2023-08-09T02:50:01.863Z,14.93
2023-08-09T02:55:02.050Z,14.92
2023-08-09T03:00:01.500Z,14.97
2023-08-09T03:05:02.003Z,14.97
2023-08-09T03:10:02.230Z,14.96
2023-08-09T03:15:01.655Z,14.96
2023-08-09T03:20:02.200Z,14.87
2023-08-09T03:25:01.427Z,14.4
2023-08-09T03:30:01.613Z,14.38
2023-08-09T03:35:02.117Z,14.29
2023-08-09T03:40:02.102Z,14.08
2023-08-09T03:45:02.056Z,13.95
2023-08-09T03:50:02.044Z,13.69
2023-08-09T03:55:01.541Z,13.74
2023-08-09T04:00:01.861Z,13.65
2023-08-09T04:05:02.177Z,13.69
2023-08-09T04:10:02.217Z,13.67
2023-08-09T04:15:01.319Z,13.7
2023-08-09T04:20:01.654Z,13.69
2023-08-09T04:25:01.724Z,13.71
2023-08-09T04:30:01.785Z,13.81
2023-08-09T04:35:01.636Z,13.78
2023-08-09T04:40:01.961Z,13.86
2023-08-09T04:45:01.933Z,13.85
2023-08-09T04:50:01.870Z,13.83
2023-08-09T04:55:01.945Z,13.86
2023-08-09T05:00:01.828Z,13.93
2023-08-09T05:05:02.089Z,13.96
2023-08-09T05:10:01.309Z,13.98
2023-08-09T05:15:01.502Z,14
2023-08-09T05:20:01.824Z,14
2023-08-09T05:25:01.997Z,13.99
2023-08-09T05:30:01.926Z,13.98
2023-08-09T05:35:02.001Z,13.95
2023-08-09T05:40:01.921Z,13.97
2023-08-09T05:45:02.086Z,13.94
2023-08-09T05:50:02.067Z,13.9
2023-08-09T05:55:01.992Z,13.9
2023-08-09T06:00:02.055Z,14.05
2023-08-09T06:05:02.136Z,14.18
2023-08-09T06:10:01.836Z,14.04
2023-08-09T06:15:02.250Z,14.09
2023-08-09T06:20:02.113Z,14.19
2023-08-09T06:25:02.229Z,14.59
2023-08-09T06:30:01.501Z,14.73
2023-08-09T06:35:01.810Z,14.52
2023-08-09T06:40:01.943Z,14.59
2023-08-09T06:45:01.294Z,15.03
2023-08-09T06:50:01.639Z,15.04
2023-08-09T06:55:02.025Z,15.16
2023-08-09T07:00:02.127Z,14.84
2023-08-09T07:05:02.290Z,14.69
2023-08-09T07:10:01.454Z,14.72
2023-08-09T07:15:02.048Z,14.85
2023-08-09T07:20:01.631Z,15.01
2023-08-09T07:25:01.853Z,15.61
2023-08-09T07:30:02.031Z,15.99
2023-08-09T07:35:02.204Z,16.29
2023-08-09T07:40:02.257Z,15.96
2023-08-09T07:45:01.292Z,15.8
2023-08-09T07:50:02.246Z,15.98
2023-08-09T07:55:01.563Z,16.01
2023-08-09T08:00:04.998Z,15.93
2023-08-09T08:05:02.123Z,16.25
2023-08-09T08:10:02.171Z,17.14
2023-08-09T08:15:01.409Z,17.22
2023-08-09T08:20:01.709Z,17.69
2023-08-09T08:25:01.905Z,17.92
2023-08-09T08:30:01.446Z,18.18
2023-08-09T08:35:01.852Z,18.4
2023-08-09T08:40:02.042Z,19.02
2023-08-09T08:45:01.985Z,19.39
2023-08-09T08:50:02.187Z,19.39
2023-08-09T08:55:01.364Z,19.69
2023-08-09T09:00:04.463Z,19.18
2023-08-09T09:05:01.599Z,19.22
2023-08-09T09:10:01.902Z,19.18
2023-08-09T09:15:02.045Z,18.46
2023-08-09T09:20:02.118Z,19.14
2023-08-09T09:25:01.308Z,18.91
2023-08-09T09:30:01.739Z,19.15
2023-08-09T09:35:01.952Z,18.92
2023-08-09T09:40:01.906Z,19.03
2023-08-09T09:45:02.144Z,19.06
2023-08-09T09:50:01.408Z,18.48
2023-08-09T09:55:01.642Z,17.94
2023-08-09T10:00:01.732Z,17.89
2023-08-09T10:05:02.249Z,17.94
2023-08-09T10:10:01.692Z,18.21
2023-08-09T10:15:02.213Z,18.46
2023-08-09T10:20:01.251Z,18.78
2023-08-09T10:25:01.488Z,18.98
2023-08-09T10:30:01.415Z,19.07
2023-08-09T10:35:01.972Z,19.28
2023-08-09T10:40:01.948Z,18.67
2023-08-09T10:45:02.046Z,19.03
2023-08-09T10:50:02.280Z,19.32
2023-08-09T10:55:01.600Z,19.1
2023-08-09T11:00:01.997Z,19.15
2023-08-09T11:05:01.540Z,19.35
2023-08-09T11:10:02.066Z,19.41
2023-08-09T11:15:02.084Z,19.4
2023-08-09T11:20:01.741Z,19.27
2023-08-09T11:25:01.267Z,19.07
2023-08-09T11:30:01.793Z,19
2023-08-09T11:35:01.787Z,18.98
2023-08-09T11:40:01.455Z,18.72
2023-08-09T11:45:01.763Z,18.94
2023-08-09T11:50:01.935Z,18.98
2023-08-09T11:55:01.969Z,19.24
2023-08-09T12:00:16.489Z,19.38
2023-08-09T12:05:01.677Z,19.12
2023-08-09T12:10:02.006Z,19
2023-08-09T12:15:01.267Z,19.27
2023-08-09T12:20:01.814Z,19.24
2023-08-09T12:25:02.084Z,19.58
2023-08-09T12:30:01.296Z,20.02
2023-08-09T12:35:01.859Z,20.26
2023-08-09T12:40:01.421Z,20.33
2023-08-09T12:45:01.599Z,20.49
2023-08-09T12:50:01.693Z,20.44
2023-08-09T12:55:02.095Z,20.31
2023-08-09T13:00:01.302Z,20.15
2023-08-09T13:05:02.074Z,19.76
2023-08-09T13:10:01.713Z,19.86
2023-08-09T13:15:01.772Z,19.82
2023-08-09T13:20:02.003Z,19.73
2023-08-09T13:25:01.735Z,19.92
2023-08-09T13:30:01.934Z,19.72
2023-08-09T13:35:01.457Z,19.7
2023-08-09T13:40:01.440Z,19.92
2023-08-09T13:45:02.099Z,19.7
2023-08-09T13:50:01.601Z,20.02
2023-08-09T13:55:01.921Z,20.03
2023-08-09T14:00:02.125Z,20
2023-08-09T14:05:01.398Z,19.92
2023-08-09T14:10:01.939Z,19.91
2023-08-09T14:20:02.152Z,20.39
2023-08-09T14:25:02.189Z,20.58
2023-08-09T14:30:01.552Z,20.68
2023-08-09T14:35:02.104Z,20.77
2023-08-09T14:40:01.610Z,20.85
2023-08-09T14:45:01.980Z,20.88
2023-08-09T14:50:01.809Z,20.65
2023-08-09T14:55:01.531Z,20.6
2023-08-09T15:00:01.797Z,20.45
2023-08-09T15:05:02.248Z,20.34
2023-08-09T15:10:01.326Z,20.66
2023-08-09T15:15:01.753Z,20.46
2023-08-09T15:20:01.606Z,20.35
2023-08-09T15:25:02.066Z,20.33
2023-08-09T15:30:02.165Z,20.48
2023-08-09T15:35:01.388Z,20.63
2023-08-09T15:40:01.816Z,20.7
2023-08-09T15:45:03.821Z,20.87
2023-08-09T15:50:02.178Z,20.91
2023-08-09T15:55:01.492Z,20.88
2023-08-09T16:00:02.086Z,20.99
2023-08-09T16:05:02.182Z,20.93
2023-08-09T16:10:02.163Z,20.77
2023-08-09T16:15:02.134Z,20.56
2023-08-09T16:20:01.259Z,20.44
2023-08-09T16:25:01.437Z,20.2
2023-08-09T16:30:01.776Z,20.25
2023-08-09T16:35:02.000Z,20.28
2023-08-09T16:40:02.080Z,20.43
2023-08-09T16:45:01.892Z,20.49
2023-08-09T16:50:01.879Z,20.36
2023-08-09T16:55:01.991Z,20.26
2023-08-09T17:00:01.340Z,20.3
2023-08-09T17:05:01.672Z,20.36
2023-08-09T17:10:01.843Z,20.35
2023-08-09T17:15:01.923Z,20.42
2023-08-09T17:20:01.558Z,20.41
2023-08-09T17:25:02.067Z,20.24
2023-08-09T17:30:01.306Z,20.07
2023-08-09T17:35:01.737Z,19.98
2023-08-09T17:40:02.113Z,19.87
2023-08-09T17:45:01.285Z,19.72
2023-08-09T17:50:01.731Z,19.74
2023-08-09T17:55:02.201Z,19.56
2023-08-09T18:00:01.476Z,19.35
2023-08-09T18:05:02.953Z,19.17
2023-08-09T18:10:02.117Z,19.07
2023-08-09T18:15:02.021Z,18.89
2023-08-09T18:20:01.454Z,18.68
2023-08-09T18:25:01.814Z,18.58
2023-08-09T18:30:01.908Z,18.32
2023-08-09T18:35:16.126Z,18.03
2023-08-09T18:40:02.229Z,17.9
2023-08-09T18:45:02.231Z,17.75
2023-08-09T18:50:02.127Z,17.62
2023-08-09T18:55:01.916Z,17.41
2023-08-09T19:00:02.145Z,17.18
2023-08-09T19:05:02.229Z,17.02
2023-08-09T19:10:02.255Z,16.82
2023-08-09T19:15:01.518Z,16.67
2023-08-09T19:20:01.745Z,16.54
2023-08-09T19:25:01.299Z,16.42
2023-08-09T19:30:01.569Z,16.28
2023-08-09T19:35:01.711Z,16.17
2023-08-09T19:40:01.806Z,16.07
2023-08-09T19:45:02.329Z,16.02
2023-08-09T19:50:01.605Z,15.91
2023-08-09T19:55:02.236Z,15.83
2023-08-09T20:00:01.739Z,15.78
2023-08-09T20:05:01.564Z,15.74
2023-08-09T20:10:01.776Z,15.73
2023-08-09T20:15:01.343Z,15.7
2023-08-09T20:20:01.646Z,15.65
2023-08-09T20:25:02.254Z,15.57
2023-08-09T20:30:01.381Z,15.56
2023-08-09T20:35:01.994Z,15.46
2023-08-09T20:40:01.360Z,15.36
2023-08-09T20:45:01.891Z,15.3
2023-08-09T20:50:01.869Z,15.17
2023-08-09T20:55:02.124Z,15.06
2023-08-09T21:00:01.975Z,14.97
2023-08-09T21:05:02.104Z,14.8
2023-08-09T21:10:01.729Z,14.81
2023-08-09T21:15:01.365Z,14.72
2023-08-09T21:20:01.737Z,14.64
2023-08-09T21:25:43.153Z,14.56
2023-08-09T21:30:02.008Z,14.53
2023-08-09T21:35:02.139Z,14.44
2023-08-09T21:40:02.130Z,14.37
2023-08-09T21:45:01.565Z,14.3
2023-08-09T21:50:01.776Z,14.25
2023-08-09T21:55:01.968Z,14.15
2023-08-09T22:00:02.081Z,13.99
2023-08-09T22:08:54.513Z,13.97
2023-08-09T22:11:51.270Z,13.92
2023-08-09T22:15:01.780Z,13.83
2023-08-09T22:20:01.944Z,13.81
2023-08-09T22:25:02.172Z,13.77
2023-08-09T22:30:02.169Z,13.67
2023-08-09T22:35:02.273Z,13.73
2023-08-09T22:40:02.129Z,13.66
2023-08-09T22:45:01.283Z,13.68
2023-08-09T22:50:01.581Z,13.56
2023-08-09T22:55:01.936Z,13.56
2023-08-09T23:00:01.807Z,13.67
2023-08-09T23:05:01.981Z,13.5
2023-08-09T23:10:01.665Z,13.5
2023-08-09T23:20:01.305Z,13.37
2023-08-09T23:25:01.385Z,13.33
2023-08-09T23:30:01.712Z,13.31
2023-08-09T23:35:01.962Z,13.23
2023-08-09T23:40:02.160Z,13.15
2023-08-09T23:45:02.233Z,13.09
2023-08-09T23:50:01.416Z,13.24
2023-08-09T23:55:01.535Z,13.14
